Time,TemperatureF,DewpointF,PressureIn,WindDirection,WindDirectionDegrees,WindSpeedMPH,WindSpeedGustMPH,Humidity,HourlyPrecipIn,Conditions,Clouds,dailyrainin,SoftwareType,DateUTC
2013-03-12 00:04:00,36.0,7.5,30.23,East,90,0.0,0.0,30,0.00,,,0.00,WUHU21623XXSP,2013-03-12 07:04:00,
2013-03-12 00:09:00,35.4,7.0,30.23,ENE,67,0.0,0.0,30,0.00,,,0.00,WUHU21623XXSP,2013-03-12 07:09:00,
2013-03-12 00:14:00,35.2,7.5,30.23,NE,45,0.0,0.0,31,0.00,,,0.00,WUHU21623XXSP,2013-03-12 07:14:00,
2013-03-12 00:27:00,34.5,6.9,30.23,NE,45,0.0,0.0,31,0.00,,,0.00,WUHU21623XXSP,2013-03-12 07:27:00,
2013-03-12 00:32:00,34.5,6.9,30.23,North,0,0.0,0.0,31,0.00,,,0.00,WUHU21623XXSP,2013-03-12 07:32:00,
2013-03-12 00:48:00,33.6,6.2,30.23,NNE,22,0.0,0.0,31,0.00,,,0.00,WUHU21623XXSP,2013-03-12 07:48:00,
2013-03-12 00:58:00,33.4,6.7,30.23,NNE,22,0.0,0.0,32,0.00,,,0.00,WUHU21623XXSP,2013-03-12 07:58:00,
2013-03-12 01:03:00,33.4,6.7,30.23,NNE,22,0.0,0.0,32,0.00,,,0.00,WUHU21623XXSP,2013-03-12 08:03:00,
2013-03-12 01:09:00,32.9,6.2,30.23,NNE,22,0.0,0.0,32,0.00,,,0.00,WUHU21623XXSP,2013-03-12 08:09:00,
2013-03-12 01:46:00,31.8,6.5,30.24,ESE,112,0.0,0.0,34,0.00,,,0.00,WUHU21623XXSP,2013-03-12 08:46:00,
2013-03-12 01:57:00,31.6,6.3,30.24,ESE,112,0.0,0.0,34,0.00,,,0.00,WUHU21623XXSP,2013-03-12 08:57:00,
2013-03-12 02:03:00,31.6,6.3,30.24,ESE,112,0.0,0.0,34,0.00,,,0.00,WUHU21623XXSP,2013-03-12 09:03:00,
2013-03-12 02:13:00,30.9,5.6,30.24,SSW,202,0.0,0.0,34,0.00,,,0.00,WUHU21623XXSP,2013-03-12 09:13:00,
2013-03-12 02:18:00,30.7,5.5,30.24,SSW,202,0.0,0.0,34,0.00,,,0.00,WUHU21623XXSP,2013-03-12 09:18:00,
2013-03-12 02:58:00,29.7,5.1,30.24,NE,45,0.0,0.0,35,0.00,,,0.00,WUHU21623XXSP,2013-03-12 09:58:00,
2013-03-12 03:03:00,29.7,5.1,30.24,NE,45,0.0,0.0,35,0.00,,,0.00,WUHU21623XXSP,2013-03-12 10:03:00,
2013-03-12 03:08:00,29.5,5.6,30.23,NE,45,0.0,0.0,36,0.00,,,0.00,WUHU21623XXSP,2013-03-12 10:08:00,
2013-03-12 03:18:00,28.9,5.1,30.23,NE,45,0.0,0.0,36,0.00,,,0.00,WUHU21623XXSP,2013-03-12 10:18:00,
2013-03-12 03:52:00,28.0,4.9,30.22,ENE,67,0.0,0.0,37,0.00,,,0.00,WUHU21623XXSP,2013-03-12 10:52:00,
2013-03-12 03:57:00,28.0,4.9,30.22,ENE,67,0.0,0.0,37,0.00,,,0.00,WUHU21623XXSP,2013-03-12 10:57:00,
2013-03-12 04:02:00,28.0,4.9,30.22,NE,45,0.0,0.0,37,0.00,,,0.00,WUHU21623XXSP,2013-03-12 11:02:00,
2013-03-12 04:24:00,27.3,5.6,30.22,ENE,67,0.0,0.0,38,0.00,,,0.00,WUHU21623XXSP,2013-03-12 11:24:00,
2013-03-12 04:58:00,26.8,5.1,30.23,North,0,0.0,0.0,39,0.00,,,0.00,WUHU21623XXSP,2013-03-12 11:58:00,
2013-03-12 05:03:00,26.8,5.1,30.22,NNW,337,0.0,0.0,39,0.00,,,0.00,WUHU21623XXSP,2013-03-12 12:03:00,
2013-03-12 05:20:00,26.4,5.4,30.22,SSE,157,0.0,0.0,40,0.00,,,0.00,WUHU21623XXSP,2013-03-12 12:20:00,
2013-03-12 05:37:00,26.2,5.2,30.22,East,90,0.0,0.0,40,0.00,,,0.00,WUHU21623XXSP,2013-03-12 12:37:00,
2013-03-12 05:45:00,25.9,4.9,30.23,East,90,0.0,0.0,40,0.00,,,0.00,WUHU21623XXSP,2013-03-12 12:45:00,
2013-03-12 05:58:00,25.9,5.4,30.22,SSE,157,0.0,0.0,41,0.00,,,0.00,WUHU21623XXSP,2013-03-12 12:58:00,
2013-03-12 06:03:00,25.9,5.4,30.22,SSE,157,0.0,0.0,41,0.00,,,0.00,WUHU21623XXSP,2013-03-12 13:03:00,
2013-03-12 06:13:00,25.3,4.9,30.22,SE,135,0.0,0.0,41,0.00,,,0.00,WUHU21623XXSP,2013-03-12 13:13:00,
2013-03-12 06:26:00,25.0,4.6,30.22,West,270,0.0,0.0,41,0.00,,,0.00,WUHU21623XXSP,2013-03-12 13:26:00,
2013-03-12 06:31:00,25.0,4.6,30.22,West,270,0.0,0.0,41,0.00,,,0.00,WUHU21623XXSP,2013-03-12 13:31:00,
2013-03-12 06:48:00,24.8,6.3,30.22,NW,315,0.0,0.0,45,0.00,,,0.00,WUHU21623XXSP,2013-03-12 13:48:00,
2013-03-12 06:57:00,25.0,6.5,30.23,NW,315,0.0,0.0,45,0.00,,,0.00,WUHU21623XXSP,2013-03-12 13:57:00,
2013-03-12 07:03:00,24.6,6.2,30.23,North,0,0.0,0.0,45,0.00,,,0.00,WUHU21623XXSP,2013-03-12 14:03:00,
2013-03-12 07:20:00,24.6,6.7,30.23,ESE,112,0.0,0.0,46,0.00,,,0.00,WUHU21623XXSP,2013-03-12 14:20:00,
2013-03-12 07:45:00,24.4,6.5,30.23,NW,315,0.0,0.0,46,0.00,,,0.00,WUHU21623XXSP,2013-03-12 14:45:00,
2013-03-12 07:56:00,24.1,6.7,30.24,WNW,292,0.0,0.0,47,0.00,,,0.00,WUHU21623XXSP,2013-03-12 14:56:00,
2013-03-12 08:19:00,25.2,8.6,30.24,NNW,337,0.0,0.0,49,0.00,,,0.00,WUHU21623XXSP,2013-03-12 15:19:00,
2013-03-12 08:43:00,27.3,11.1,30.25,WSW,247,0.0,0.0,50,0.00,,,0.00,WUHU21623XXSP,2013-03-12 15:43:00,
2013-03-12 09:09:00,31.3,15.6,30.25,West,270,0.0,0.0,52,0.00,,,0.00,WUHU21623XXSP,2013-03-12 16:09:00,
2013-03-12 10:22:00,46.2,27.5,30.25,West,270,0.0,0.0,48,0.00,,,0.00,WUHU21623XXSP,2013-03-12 17:22:00,
2013-03-12 10:47:00,51.1,29.2,30.24,ENE,67,0.0,0.0,42,0.00,,,0.00,WUHU21623XXSP,2013-03-12 17:47:00,
2013-03-12 10:54:00,52.0,29.5,30.24,SE,135,0.0,0.0,42,0.00,,,0.00,WUHU21623XXSP,2013-03-12 17:54:00,
2013-03-12 12:02:00,59.5,30.9,30.22,WNW,292,0.0,0.0,34,0.00,,,0.00,WUHU21623XXSP,2013-03-12 19:02:00,
2013-03-12 12:23:00,63.0,32.5,30.22,South,180,0.0,0.0,32,0.00,,,0.00,WUHU21623XXSP,2013-03-12 19:23:00,
2013-03-12 12:38:00,65.3,32.2,30.21,East,90,0.0,0.0,29,0.00,,,0.00,WUHU21623XXSP,2013-03-12 19:38:00,
2013-03-12 13:04:00,68.9,32.2,30.20,West,270,0.0,0.0,26,0.00,,,0.00,WUHU21623XXSP,2013-03-12 20:04:00,
2013-03-12 13:17:00,70.2,31.3,30.19,SSE,157,0.0,0.0,24,0.00,,,0.00,WUHU21623XXSP,2013-03-12 20:17:00,
2013-03-12 13:23:00,70.5,31.6,30.19,WNW,292,1.6,1.6,24,0.00,,,0.00,WUHU21623XXSP,2013-03-12 20:23:00,
2013-03-12 13:37:00,71.4,30.3,30.19,NW,315,2.5,2.5,22,0.00,,,0.00,WUHU21623XXSP,2013-03-12 20:37:00,
2013-03-12 14:02:00,73.0,30.7,30.19,NW,315,2.2,2.2,21,0.00,,,0.00,WUHU21623XXSP,2013-03-12 21:02:00,
2013-03-12 14:07:00,73.0,30.7,30.18,North,0,0.7,2.2,21,0.00,,,0.00,WUHU21623XXSP,2013-03-12 21:07:00,
2013-03-12 14:37:00,72.0,27.1,30.18,NNW,337,4.9,4.9,19,0.00,,,0.00,WUHU21623XXSP,2013-03-12 21:37:00,
2013-03-12 14:51:00,71.4,26.6,30.17,NW,315,4.5,4.5,19,0.00,,,0.00,WUHU21623XXSP,2013-03-12 21:51:00,
2013-03-12 15:00:00,71.2,26.5,30.17,WNW,292,2.0,4.5,18,0.00,,,0.00,WUHU21623XXSP,2013-03-12 22:00:00,
2013-03-12 16:13:00,69.6,25.2,30.16,NW,315,3.8,3.8,19,0.00,,,0.00,WUHU21623XXSP,2013-03-12 23:13:00,
2013-03-12 16:18:00,69.6,25.2,30.15,NW,315,3.8,3.8,19,0.00,,,0.00,WUHU21623XXSP,2013-03-12 23:18:00,
2013-03-12 16:32:00,69.1,23.1,30.16,South,180,0.0,0.0,18,0.00,,,0.00,WUHU21623XXSP,2013-03-12 23:32:00,
2013-03-12 16:51:00,68.7,22.9,30.16,WNW,292,1.1,1.1,18,0.00,,,0.00,WUHU21623XXSP,2013-03-12 23:51:00,
2013-03-12 16:58:00,68.7,22.9,30.16,WNW,292,4.0,4.0,18,0.00,,,0.00,WUHU21623XXSP,2013-03-12 23:58:00,
2013-03-12 17:15:00,68.4,22.6,30.16,NNW,337,3.8,3.8,18,0.00,,,0.00,WUHU21623XXSP,2013-03-13 00:15:00,
2013-03-12 17:21:00,68.2,22.4,30.16,NW,315,6.0,6.0,18,0.00,,,0.00,WUHU21623XXSP,2013-03-13 00:21:00,
2013-03-12 17:29:00,67.8,22.2,30.16,NW,315,4.9,6.0,18,0.00,,,0.00,WUHU21623XXSP,2013-03-13 00:29:00,
2013-03-12 17:38:00,67.6,22.0,30.16,West,270,0.0,4.9,18,0.00,,,0.00,WUHU21623XXSP,2013-03-13 00:38:00,
2013-03-12 18:16:00,66.4,22.5,30.16,WNW,292,1.1,1.1,19,0.00,,,0.00,WUHU21623XXSP,2013-03-13 01:16:00,
2013-03-12 18:36:00,64.9,22.9,30.17,WNW,292,0.0,0.0,20,0.00,,,0.00,WUHU21623XXSP,2013-03-13 01:36:00,
2013-03-12 18:46:00,64.0,22.2,30.17,WNW,292,0.0,0.0,20,0.00,,,0.00,WUHU21623XXSP,2013-03-13 01:46:00,
2013-03-12 18:55:00,63.3,22.6,30.17,West,270,0.0,0.0,21,0.00,,,0.00,WUHU21623XXSP,2013-03-13 01:55:00,
2013-03-12 19:01:00,62.6,22.0,30.17,West,270,0.0,0.0,21,0.00,,,0.00,WUHU21623XXSP,2013-03-13 02:01:00,
2013-03-12 19:10:00,61.7,21.4,30.17,WNW,292,0.0,0.0,21,0.00,,,0.00,WUHU21623XXSP,2013-03-13 02:10:00,
2013-03-12 19:15:00,61.5,21.3,30.17,WNW,292,0.0,0.0,21,0.00,,,0.00,WUHU21623XXSP,2013-03-13 02:15:00,
2013-03-12 19:23:00,60.6,22.3,30.18,WNW,292,0.0,0.0,23,0.00,,,0.00,WUHU21623XXSP,2013-03-13 02:23:00,
2013-03-12 19:34:00,59.5,20.5,30.18,NNW,337,0.0,0.0,22,0.00,,,0.00,WUHU21623XXSP,2013-03-13 02:34:00,
2013-03-12 19:40:00,58.8,20.0,30.18,NNE,22,0.0,0.0,22,0.00,,,0.00,WUHU21623XXSP,2013-03-13 02:40:00,
2013-03-12 19:51:00,58.3,21.2,30.18,NNE,22,0.0,0.0,24,0.00,,,0.00,WUHU21623XXSP,2013-03-13 02:51:00,
2013-03-12 19:59:00,57.4,20.5,30.19,East,90,0.0,0.0,24,0.00,,,0.00,WUHU21623XXSP,2013-03-13 02:59:00,
2013-03-12 20:06:00,56.5,19.7,30.19,WNW,292,0.0,0.0,24,0.00,,,0.00,WUHU21623XXSP,2013-03-13 03:06:00,
2013-03-12 20:18:00,55.6,18.0,30.19,East,90,0.0,0.0,23,0.00,,,0.00,WUHU21623XXSP,2013-03-13 03:18:00,
2013-03-12 20:31:00,54.3,18.8,30.19,East,90,0.0,0.0,25,0.00,,,0.00,WUHU21623XXSP,2013-03-13 03:31:00,
2013-03-12 20:53:00,52.3,16.2,30.20,NNW,337,0.0,0.0,24,0.00,,,0.00,WUHU21623XXSP,2013-03-13 03:53:00,
2013-03-12 21:05:00,51.6,17.5,30.21,East,90,0.0,0.0,26,0.00,,,0.00,WUHU21623XXSP,2013-03-13 04:05:00,
2013-03-12 21:06:00,51.6,17.5,30.21,East,90,0.0,0.0,26,0.00,,,0.00,WUHU21623XXSP,2013-03-13 04:06:00,
2013-03-12 21:07:00,51.6,17.5,30.21,East,90,0.0,0.0,26,0.00,,,0.00,WUHU21623XXSP,2013-03-13 04:07:00,
2013-03-12 21:12:00,51.3,17.2,30.21,West,270,0.0,0.0,26,0.00,,,0.00,WUHU21623XXSP,2013-03-13 04:12:00,
2013-03-12 21:20:00,50.7,16.7,30.21,WSW,247,0.0,0.0,26,0.00,,,0.00,WUHU21623XXSP,2013-03-13 04:20:00,
2013-03-12 21:33:00,49.8,15.9,30.22,NNW,337,0.0,0.0,26,0.00,,,0.00,WUHU21623XXSP,2013-03-13 04:33:00,
2013-03-12 21:38:00,49.6,16.7,30.22,WNW,292,0.0,0.0,27,0.00,,,0.00,WUHU21623XXSP,2013-03-13 04:38:00,
2013-03-12 21:55:00,48.4,15.7,30.22,ESE,112,0.0,0.0,27,0.00,,,0.00,WUHU21623XXSP,2013-03-13 04:55:00,
2013-03-12 22:01:00,48.0,16.3,30.22,NE,45,0.0,0.0,28,0.00,,,0.00,WUHU21623XXSP,2013-03-13 05:01:00,
2013-03-12 22:10:00,47.5,15.8,30.22,NNW,337,0.0,0.0,28,0.00,,,0.00,WUHU21623XXSP,2013-03-13 05:10:00,
2013-03-12 22:20:00,46.9,15.3,30.23,SSE,157,0.0,0.0,28,0.00,,,0.00,WUHU21623XXSP,2013-03-13 05:20:00,
2013-03-12 22:27:00,46.2,15.0,30.23,ESE,112,0.0,0.0,28,0.00,,,0.00,WUHU21623XXSP,2013-03-13 05:27:00,
2013-03-12 22:40:00,45.7,15.1,30.23,NE,45,0.0,0.0,29,0.00,,,0.00,WUHU21623XXSP,2013-03-13 05:40:00,
2013-03-12 22:53:00,45.1,14.6,30.23,SE,135,0.0,0.0,29,0.00,,,0.00,WUHU21623XXSP,2013-03-13 05:53:00,
2013-03-12 23:00:00,44.6,15.1,30.23,SSE,157,0.0,0.0,30,0.00,,,0.00,WUHU21623XXSP,2013-03-13 06:00:00,
2013-03-12 23:05:00,44.6,15.1,30.23,SSE,157,0.0,0.0,30,0.00,,,0.00,WUHU21623XXSP,2013-03-13 06:05:00,
2013-03-12 23:10:00,44.2,14.8,30.23,NE,45,0.0,0.0,30,0.00,,,0.00,WUHU21623XXSP,2013-03-13 06:10:00,
2013-03-12 23:23:00,43.7,14.9,30.24,SSW,202,0.0,0.0,31,0.00,,,0.00,WUHU21623XXSP,2013-03-13 06:23:00,
2013-03-12 23:29:00,43.5,14.8,30.24,WSW,247,0.0,0.0,31,0.00,,,0.00,WUHU21623XXSP,2013-03-13 06:29:00,
2013-03-12 23:42:00,43.0,14.4,30.24,North,0,0.0,0.0,31,0.00,,,0.00,WUHU21623XXSP,2013-03-13 06:42:00,
2013-03-12 23:53:00,42.6,14.0,30.24,North,0,0.0,0.0,31,0.00,,,0.00,WUHU21623XXSP,2013-03-13 06:53:00,
2013-03-12 23:58:00,42.6,14.0,30.24,North,0,0.0,0.0,31,0.00,,,0.00,WUHU21623XXSP,2013-03-13 06:58:00,